createdAt,value
2018-03-11T00:00:36.895Z,96.65
2018-03-11T00:01:17.466Z,96.26
2018-03-11T00:01:58.101Z,96.36
2018-03-11T00:02:38.732Z,96.46
2018-03-11T00:03:19.333Z,96.74
2018-03-11T00:03:59.895Z,96.26
2018-03-11T00:04:40.458Z,96.08
2018-03-11T00:05:21.017Z,96.08
2018-03-11T00:06:01.564Z,96.36
2018-03-11T00:06:42.110Z,96.46
2018-03-11T00:07:22.734Z,96.36
2018-03-11T00:08:03.285Z,96.17
2018-03-11T00:08:43.841Z,96.36
2018-03-11T00:09:24.410Z,95.79
2018-03-11T00:10:05.122Z,96.36
2018-03-11T00:10:45.688Z,96.36
2018-03-11T00:11:26.276Z,96.36
2018-03-11T00:12:06.894Z,96.36
2018-03-11T00:12:47.534Z,96.36
2018-03-11T00:13:28.083Z,96.26
2018-03-11T00:14:08.676Z,95.79
2018-03-11T00:14:49.242Z,95.7
2018-03-11T00:15:29.847Z,95.79
2018-03-11T00:16:10.441Z,95.51
2018-03-11T00:16:51.026Z,95.51
2018-03-11T00:17:31.614Z,95.51
2018-03-11T00:18:12.185Z,95.79
2018-03-11T00:18:52.814Z,95.51
2018-03-11T00:19:33.400Z,95.98
2018-03-11T00:20:13.978Z,95.7
2018-03-11T00:20:54.650Z,95.12
2018-03-11T00:21:35.291Z,95.41
2018-03-11T00:22:15.964Z,95.7
2018-03-11T00:22:56.449Z,95.51
2018-03-11T00:23:37.077Z,95.32
2018-03-11T00:24:17.656Z,95.41
2018-03-11T00:24:58.390Z,95.7
2018-03-11T00:25:38.970Z,95.41
2018-03-11T00:26:19.599Z,95.51
2018-03-11T00:27:00.172Z,95.6
2018-03-11T00:27:40.814Z,95.6
2018-03-11T00:28:21.451Z,95.51
2018-03-11T00:29:02.019Z,95.7
2018-03-11T00:29:42.617Z,95.41
2018-03-11T00:30:23.190Z,95.6
2018-03-11T00:31:03.760Z,95.51
2018-03-11T00:31:44.330Z,95.41
2018-03-11T00:32:24.935Z,95.41
2018-03-11T00:33:05.517Z,95.89
2018-03-11T00:33:46.094Z,95.41
2018-03-11T00:34:26.637Z,95.89
2018-03-11T00:35:07.190Z,95.7
2018-03-11T00:35:47.774Z,95.12
2018-03-11T00:36:28.372Z,95.03
2018-03-11T00:37:08.927Z,95.6
2018-03-11T00:37:49.522Z,95.89
2018-03-11T00:38:30.054Z,95.98
2018-03-11T00:39:10.798Z,95.89
2018-03-11T00:39:51.382Z,95.12
2018-03-11T00:40:31.955Z,94.93
2018-03-11T00:41:12.601Z,94.84
2018-03-11T00:41:53.177Z,95.22
2018-03-11T00:42:33.731Z,95.03
2018-03-11T00:43:14.395Z,95.03
2018-03-11T00:43:54.951Z,94.93
2018-03-11T00:44:35.473Z,95.03
2018-03-11T00:45:16.110Z,95.12
2018-03-11T00:45:56.690Z,95.12
2018-03-11T00:46:37.263Z,95.12
2018-03-11T00:47:17.810Z,94.93
2018-03-11T00:47:58.419Z,95.32
2018-03-11T00:48:38.977Z,95.32
2018-03-11T00:49:19.682Z,95.22
2018-03-11T00:50:00.232Z,95.32
2018-03-11T00:50:40.800Z,95.41
2018-03-11T00:51:21.424Z,95.22
2018-03-11T00:52:02.038Z,95.03
2018-03-11T00:52:42.609Z,94.93
2018-03-11T00:53:23.163Z,94.84
2018-03-11T00:54:03.709Z,94.65
2018-03-11T00:54:44.301Z,94.65
2018-03-11T00:55:24.893Z,95.12
2018-03-11T00:56:05.452Z,94.93
2018-03-11T00:56:46.024Z,94.84
2018-03-11T00:57:26.575Z,95.22
2018-03-11T00:58:07.153Z,95.03
2018-03-11T00:58:47.714Z,94.84
2018-03-11T00:59:28.305Z,95.12
2018-03-11T01:00:08.878Z,94.93
2018-03-11T01:00:49.493Z,95.12
2018-03-11T01:01:30.054Z,94.18
2018-03-11T01:02:10.662Z,94.84
2018-03-11T01:02:51.205Z,95.22
2018-03-11T01:03:31.761Z,94.46
2018-03-11T01:04:12.321Z,94.65
2018-03-11T01:04:52.880Z,94.18
2018-03-11T01:05:33.460Z,94.37
2018-03-11T01:06:14.019Z,94.84
2018-03-11T01:06:54.633Z,95.12
2018-03-11T01:07:35.210Z,95.22
2018-03-11T01:08:15.882Z,95.22
2018-03-11T01:08:56.476Z,95.22
2018-03-11T01:09:37.066Z,94.56
2018-03-11T01:10:17.899Z,94.37
2018-03-11T01:10:58.478Z,94.08
2018-03-11T01:11:39.044Z,94.56
2018-03-11T01:12:19.605Z,94.56
2018-03-11T01:13:00.203Z,94.65
2018-03-11T01:13:40.912Z,94.18
2018-03-11T01:14:21.323Z,94.56
2018-03-11T01:15:01.914Z,94.65
2018-03-11T01:15:42.467Z,94.74
2018-03-11T01:16:23.043Z,94.37
2018-03-11T01:17:03.619Z,94.93
2018-03-11T01:17:44.193Z,94.84
2018-03-11T01:18:24.792Z,94.37
2018-03-11T01:19:05.372Z,94.37
2018-03-11T01:19:45.962Z,94.65
2018-03-11T01:20:26.539Z,94.56
2018-03-11T01:21:07.133Z,94.27
2018-03-11T01:21:47.676Z,94.74
2018-03-11T01:22:28.224Z,94.37
2018-03-11T01:23:08.860Z,94.56
2018-03-11T01:23:49.459Z,94.46
2018-03-11T01:24:30.062Z,94.18
2018-03-11T01:25:10.718Z,94.65
2018-03-11T01:25:51.311Z,94.56
2018-03-11T01:26:31.931Z,94.27
2018-03-11T01:27:12.530Z,94.27
2018-03-11T01:27:53.077Z,94.18
2018-03-11T01:28:33.645Z,94.37
2018-03-11T01:29:14.242Z,94.65
2018-03-11T01:29:54.794Z,94.18
2018-03-11T01:30:35.373Z,94.18
2018-03-11T01:31:15.938Z,94.18
2018-03-11T01:31:56.541Z,94.37
2018-03-11T01:32:37.120Z,94.46
2018-03-11T01:33:17.786Z,94.37
2018-03-11T01:33:58.353Z,94.27
2018-03-11T01:34:38.917Z,94.27
2018-03-11T01:35:19.489Z,94.65
2018-03-11T01:36:00.087Z,94.46
2018-03-11T01:36:40.698Z,94.37
2018-03-11T01:37:21.278Z,94.46
2018-03-11T01:38:01.879Z,94.18
2018-03-11T01:38:42.446Z,94.37
2018-03-11T01:39:23.023Z,93.79
2018-03-11T01:40:03.679Z,93.79
2018-03-11T01:40:44.234Z,93.79
2018-03-11T01:41:24.848Z,93.98
2018-03-11T01:42:05.407Z,93.84
2018-03-11T01:42:46.003Z,93.89
2018-03-11T01:43:26.575Z,94.74
2018-03-11T01:44:07.163Z,94.18
2018-03-11T01:44:47.765Z,94.18
2018-03-11T01:45:28.379Z,94.37
2018-03-11T01:46:08.937Z,94.65
2018-03-11T01:46:49.549Z,94.27
2018-03-11T01:47:30.122Z,94.65
2018-03-11T01:48:10.679Z,93.98
2018-03-11T01:48:51.272Z,93.98
2018-03-11T01:49:31.868Z,93.98
2018-03-11T01:50:12.436Z,93.79
2018-03-11T01:50:52.996Z,93.98
2018-03-11T01:51:33.547Z,93.98
2018-03-11T01:52:14.094Z,93.89
2018-03-11T01:52:54.660Z,93.79
2018-03-11T01:53:35.221Z,93.6
2018-03-11T01:54:15.801Z,93.89
2018-03-11T01:54:56.402Z,93.89
2018-03-11T01:55:36.954Z,93.98
2018-03-11T01:56:17.520Z,93.79
2018-03-11T01:56:58.118Z,94.18
2018-03-11T01:57:38.735Z,93.79
2018-03-11T01:58:19.312Z,94.37
2018-03-11T01:58:59.878Z,94.18
2018-03-11T01:59:40.450Z,94.18
2018-03-11T02:00:21.035Z,94.18
2018-03-11T02:01:01.578Z,93.98
2018-03-11T02:01:42.144Z,93.98
2018-03-11T02:02:22.736Z,93.7
2018-03-11T02:03:03.261Z,93.32
2018-03-11T02:03:43.819Z,93.89
2018-03-11T02:04:24.398Z,93.7
2018-03-11T02:05:05.009Z,93.7
2018-03-11T02:05:45.575Z,93.7
2018-03-11T02:06:26.147Z,93.6
2018-03-11T02:07:06.703Z,93.79
2018-03-11T02:07:47.281Z,93.6
2018-03-11T02:08:27.843Z,93.41
2018-03-11T02:09:08.413Z,93.7
2018-03-11T02:09:49.164Z,93.7
2018-03-11T02:10:29.752Z,93.79
2018-03-11T02:11:10.389Z,93.51
2018-03-11T02:11:50.943Z,93.79
2018-03-11T02:12:31.536Z,93.7
2018-03-11T02:13:12.108Z,93.7
2018-03-11T02:13:52.715Z,92.84
2018-03-11T02:14:33.224Z,93.6
2018-03-11T02:15:13.793Z,93.13
2018-03-11T02:15:54.407Z,93.51
2018-03-11T02:16:35.013Z,92.84
2018-03-11T02:17:15.582Z,93.6
2018-03-11T02:17:56.162Z,93.6
2018-03-11T02:18:36.718Z,93.32
2018-03-11T02:19:17.267Z,93.32
2018-03-11T02:19:57.829Z,93.7
2018-03-11T02:20:38.402Z,93.89
2018-03-11T02:21:18.960Z,93.32
2018-03-11T02:21:59.537Z,93.32
2018-03-11T02:22:40.110Z,93.13
2018-03-11T02:23:20.669Z,93.32
2018-03-11T02:24:01.222Z,93.23
2018-03-11T02:24:41.820Z,93.32
2018-03-11T02:25:22.393Z,93.13
2018-03-11T02:26:02.971Z,93.32
2018-03-11T02:26:43.528Z,93.51
2018-03-11T02:27:24.150Z,93.41
2018-03-11T02:28:04.696Z,93.32
2018-03-11T02:28:45.248Z,93.32
2018-03-11T02:29:25.795Z,93.13
2018-03-11T02:30:06.350Z,93.23
2018-03-11T02:30:46.965Z,93.04
2018-03-11T02:31:27.533Z,93.23
2018-03-11T02:32:08.099Z,92.94
2018-03-11T02:32:48.654Z,93.23
2018-03-11T02:33:29.207Z,92.94
2018-03-11T02:34:09.800Z,93.04
2018-03-11T02:34:50.412Z,93.13
2018-03-11T02:35:31.062Z,93.13
2018-03-11T02:36:11.630Z,93.13
2018-03-11T02:36:52.228Z,93.13
2018-03-11T02:37:32.832Z,93.23
2018-03-11T02:38:13.435Z,93.32
2018-03-11T02:38:54.028Z,93.13
2018-03-11T02:39:34.565Z,93.51
2018-03-11T02:40:15.179Z,93.13
2018-03-11T02:40:55.818Z,93.32
2018-03-11T02:41:36.418Z,93.23
2018-03-11T02:42:17.017Z,93.32
2018-03-11T02:42:57.628Z,93.13
2018-03-11T02:43:38.295Z,93.18
2018-03-11T02:44:19.098Z,93.32
2018-03-11T02:44:59.715Z,93.08
2018-03-11T02:45:40.254Z,93.32
2018-03-11T02:46:20.841Z,93.23
2018-03-11T02:47:01.401Z,93.32
2018-03-11T02:47:41.970Z,93.51
2018-03-11T02:48:22.555Z,93.04
2018-03-11T02:49:03.181Z,93.04
2018-03-11T02:49:43.890Z,93.32
2018-03-11T02:50:24.454Z,93.51
2018-03-11T02:51:05.042Z,93.27
2018-03-11T02:51:45.595Z,93.32
2018-03-11T02:52:26.173Z,93.41
2018-03-11T02:53:06.760Z,93.08
2018-03-11T02:53:47.335Z,93.32
2018-03-11T02:54:27.919Z,93.23
2018-03-11T02:55:08.463Z,92.89
2018-03-11T02:55:49.053Z,93.23
2018-03-11T02:56:29.622Z,93.18
2018-03-11T02:57:10.176Z,92.94
2018-03-11T02:57:50.744Z,93.18
2018-03-11T02:58:31.310Z,92.89
2018-03-11T02:59:11.907Z,92.89
2018-03-11T02:59:52.459Z,93.18
2018-03-11T03:00:33.029Z,93.37
2018-03-11T03:01:13.660Z,93.27
2018-03-11T03:01:54.363Z,93.27
2018-03-11T03:02:34.930Z,92.99
2018-03-11T03:03:15.473Z,93.65
2018-03-11T03:03:56.033Z,93.55
2018-03-11T03:04:36.602Z,93.27
2018-03-11T03:05:17.168Z,93.75
2018-03-11T03:05:57.735Z,93.65
2018-03-11T03:06:38.346Z,93.55
2018-03-11T03:07:18.891Z,93.27
2018-03-11T03:07:59.615Z,94.03
2018-03-11T03:08:40.191Z,93.94
2018-03-11T03:09:20.744Z,94.03
2018-03-11T03:10:01.310Z,93.75
2018-03-11T03:10:41.866Z,94.13
2018-03-11T03:11:22.444Z,93.94
2018-03-11T03:12:03.060Z,94.13
2018-03-11T03:12:43.609Z,93.75
2018-03-11T03:13:24.196Z,93.75
2018-03-11T03:14:04.745Z,93.75
2018-03-11T03:14:45.318Z,94.03
2018-03-11T03:15:25.886Z,93.84
2018-03-11T03:16:06.585Z,93.84
2018-03-11T03:16:47.060Z,94.03
2018-03-11T03:17:27.666Z,93.75
2018-03-11T03:18:08.226Z,94.22
2018-03-11T03:18:48.786Z,93.75
2018-03-11T03:19:29.343Z,94.03
2018-03-11T03:20:09.893Z,93.84
2018-03-11T03:20:50.453Z,93.94
2018-03-11T03:21:31.016Z,93.94
2018-03-11T03:22:11.572Z,93.94
2018-03-11T03:22:52.156Z,94.03
2018-03-11T03:23:32.740Z,93.84
2018-03-11T03:24:13.279Z,94.03
2018-03-11T03:24:53.827Z,94.03
2018-03-11T03:25:34.391Z,94.03
2018-03-11T03:26:14.960Z,93.75
2018-03-11T03:26:55.512Z,93.94
2018-03-11T03:27:36.066Z,93.84
2018-03-11T03:28:16.687Z,93.84
2018-03-11T03:28:57.244Z,94.32
2018-03-11T03:29:37.809Z,94.32
2018-03-11T03:30:18.393Z,94.6
2018-03-11T03:30:58.952Z,94.42
2018-03-11T03:31:39.520Z,94.6
2018-03-11T03:32:20.077Z,94.42
2018-03-11T03:33:00.633Z,94.13
2018-03-11T03:33:41.193Z,93.84
2018-03-11T03:34:21.770Z,93.94
2018-03-11T03:35:02.333Z,93.94
2018-03-11T03:35:42.996Z,93.94
2018-03-11T03:36:23.575Z,93.94
2018-03-11T03:37:04.135Z,93.75
2018-03-11T03:37:44.744Z,94.03
2018-03-11T03:38:25.318Z,93.94
2018-03-11T03:39:05.844Z,93.75
2018-03-11T03:39:46.388Z,93.94
2018-03-11T03:40:26.963Z,94.03
2018-03-11T03:41:08.418Z,93.84
2018-03-11T03:41:48.976Z,94.22
2018-03-11T03:42:29.548Z,93.94
2018-03-11T03:43:10.173Z,93.94
2018-03-11T03:43:50.771Z,93.27
2018-03-11T03:44:31.333Z,93.27
2018-03-11T03:45:11.914Z,94.03
2018-03-11T03:45:52.503Z,93.94
2018-03-11T03:46:33.111Z,93.89
2018-03-11T03:47:13.678Z,93.89
2018-03-11T03:47:54.327Z,93.75
2018-03-11T03:48:34.882Z,93.79
2018-03-11T03:49:15.504Z,93.89
2018-03-11T03:49:56.033Z,94.03
2018-03-11T03:50:36.659Z,93.7
2018-03-11T03:51:17.258Z,93.79
2018-03-11T03:51:57.873Z,93.79
2018-03-11T03:52:38.430Z,93.99
2018-03-11T03:53:18.981Z,93.89
2018-03-11T03:53:59.554Z,93.89
2018-03-11T03:54:40.175Z,94.27
2018-03-11T03:55:20.764Z,93.51
2018-03-11T03:56:01.555Z,93.89
2018-03-11T03:56:42.131Z,94.08
2018-03-11T03:57:22.706Z,94.56
2018-03-11T03:58:03.303Z,94.56
2018-03-11T03:58:43.896Z,94.56
2018-03-11T03:59:24.487Z,94.37
2018-03-11T04:00:05.045Z,94.18
2018-03-11T04:00:45.611Z,94.56
2018-03-11T04:01:26.169Z,94.56
2018-03-11T04:02:06.731Z,94.08
2018-03-11T04:02:47.310Z,93.89
2018-03-11T04:03:27.909Z,93.89
2018-03-11T04:04:08.473Z,93.89
2018-03-11T04:04:49.059Z,93.89
2018-03-11T04:05:29.611Z,93.89
2018-03-11T04:06:10.182Z,93.51
2018-03-11T04:06:50.740Z,93.51
2018-03-11T04:07:31.315Z,93.51
2018-03-11T04:08:11.888Z,93.89
2018-03-11T04:08:52.437Z,94.08
2018-03-11T04:09:33.053Z,94.56
2018-03-11T04:10:13.603Z,94.18
2018-03-11T04:10:54.165Z,94.18
2018-03-11T04:11:34.720Z,94.27
2018-03-11T04:12:15.297Z,94.27
2018-03-11T04:12:55.902Z,94.56
2018-03-11T04:13:36.467Z,94.37
2018-03-11T04:14:17.039Z,94.27
2018-03-11T04:14:57.593Z,94.08
2018-03-11T04:15:38.177Z,94.84
2018-03-11T04:16:18.730Z,94.65
2018-03-11T04:16:59.314Z,94.56
2018-03-11T04:17:39.873Z,94.84
2018-03-11T04:18:20.429Z,94.08
2018-03-11T04:19:01.098Z,94.27
2018-03-11T04:19:41.661Z,94.46
2018-03-11T04:20:22.242Z,94.18
2018-03-11T04:21:02.797Z,94.18
2018-03-11T04:21:43.369Z,94.37
2018-03-11T04:22:23.938Z,94.93
2018-03-11T04:23:04.493Z,94.84
2018-03-11T04:23:45.056Z,94.74
2018-03-11T04:24:25.642Z,94.74
2018-03-11T04:25:06.201Z,94.93
2018-03-11T04:25:46.759Z,94.84
2018-03-11T04:26:27.328Z,95.12
2018-03-11T04:27:07.882Z,94.84
2018-03-11T04:27:48.495Z,94.93
2018-03-11T04:28:29.035Z,95.12
2018-03-11T04:29:09.609Z,94.56
2018-03-11T04:29:50.158Z,94.74
2018-03-11T04:30:30.705Z,94.74
2018-03-11T04:31:11.286Z,95.12
2018-03-11T04:31:51.891Z,94.74
2018-03-11T04:32:32.476Z,94.74
2018-03-11T04:33:13.040Z,94.93
2018-03-11T04:33:53.618Z,94.93
2018-03-11T04:34:34.313Z,94.37
2018-03-11T04:35:14.899Z,94.56
2018-03-11T04:35:55.496Z,94.46
2018-03-11T04:36:36.085Z,95.32
2018-03-11T04:37:16.656Z,94.74
2018-03-11T04:37:57.292Z,94.93
2018-03-11T04:38:37.843Z,94.93
2018-03-11T04:39:18.408Z,94.93
2018-03-11T04:39:59.010Z,94.74
2018-03-11T04:40:39.576Z,95.32
2018-03-11T04:41:20.131Z,95.32
2018-03-11T04:42:00.681Z,95.12
2018-03-11T04:42:41.249Z,95.12
2018-03-11T04:43:21.810Z,94.93
2018-03-11T04:44:02.379Z,94.84
2018-03-11T04:44:42.968Z,95.12
2018-03-11T04:45:23.533Z,94.84
2018-03-11T04:46:04.085Z,94.84
2018-03-11T04:46:44.637Z,94.56
2018-03-11T04:47:25.197Z,95.03
2018-03-11T04:48:05.757Z,94.65
2018-03-11T04:48:46.330Z,94.93
2018-03-11T04:49:26.902Z,94.84
2018-03-11T04:50:07.472Z,95.03
2018-03-11T04:50:48.072Z,95.03
2018-03-11T04:51:28.639Z,94.74
2018-03-11T04:52:09.181Z,94.74
2018-03-11T04:52:49.741Z,95.12
2018-03-11T04:53:30.313Z,94.93
2018-03-11T04:54:10.876Z,94.84
2018-03-11T04:54:51.431Z,94.84
2018-03-11T04:55:31.994Z,94.84
2018-03-11T04:56:12.593Z,94.84
2018-03-11T04:56:53.158Z,94.74
2018-03-11T04:57:33.725Z,95.41
2018-03-11T04:58:14.278Z,95.22
2018-03-11T04:58:54.843Z,95.32
2018-03-11T04:59:35.394Z,95.32
2018-03-11T05:00:15.963Z,95.12
2018-03-11T05:00:56.518Z,95.03
2018-03-11T05:01:37.093Z,95.03
2018-03-11T05:02:17.632Z,95.03
2018-03-11T05:02:58.200Z,95.03
2018-03-11T05:03:38.770Z,95.03
2018-03-11T05:04:19.341Z,95.03
2018-03-11T05:04:59.883Z,95.12
2018-03-11T05:05:40.444Z,95.03
2018-03-11T05:06:20.999Z,95.03
2018-03-11T05:07:01.664Z,95.51
2018-03-11T05:07:42.221Z,95.7
2018-03-11T05:08:22.790Z,95.41
2018-03-11T05:09:03.364Z,95.6
2018-03-11T05:09:43.969Z,95.32
2018-03-11T05:10:24.491Z,95.41
2018-03-11T05:14:10.439Z,95.32
2018-03-11T05:14:51.013Z,95.79
2018-03-11T05:15:31.549Z,95.51
2018-03-11T05:16:12.107Z,95.41
2018-03-11T05:16:52.659Z,95.41
2018-03-11T05:17:33.213Z,95.7
2018-03-11T05:18:13.806Z,95.7
2018-03-11T05:18:54.367Z,95.32
2018-03-11T05:19:34.917Z,95.32
2018-03-11T05:20:15.469Z,95.6
2018-03-11T05:20:56.076Z,95.6
2018-03-11T05:21:36.654Z,95.51
2018-03-11T05:22:17.218Z,95.41
2018-03-11T05:22:57.747Z,95.51
2018-03-11T05:23:38.307Z,95.51
2018-03-11T05:24:18.902Z,95.12
2018-03-11T05:24:59.427Z,95.12
2018-03-11T05:25:40.011Z,95.89
2018-03-11T05:26:20.573Z,95.12
2018-03-11T05:27:01.122Z,94.84
2018-03-11T05:27:41.648Z,95.03
2018-03-11T05:28:22.200Z,95.12
2018-03-11T05:29:02.745Z,95.03
2018-03-11T05:29:43.307Z,95.03
2018-03-11T05:30:23.874Z,94.93
2018-03-11T05:31:04.423Z,95.32
2018-03-11T05:31:44.986Z,95.03
2018-03-11T05:32:25.544Z,95.12
2018-03-11T05:33:06.108Z,94.84
2018-03-11T05:33:46.674Z,95.03
2018-03-11T05:34:27.254Z,95.7
2018-03-11T05:35:07.822Z,95.7
2018-03-11T05:35:48.443Z,95.51
2018-03-11T05:36:29.038Z,95.7
2018-03-11T05:37:09.598Z,95.12
2018-03-11T05:37:50.168Z,95.12
2018-03-11T05:38:30.756Z,95.32
2018-03-11T05:39:11.314Z,95.32
2018-03-11T05:39:51.859Z,95.41
2018-03-11T05:40:32.407Z,95.12
2018-03-11T05:41:12.951Z,94.46
2018-03-11T05:41:53.506Z,94.46
2018-03-11T05:42:34.064Z,94.93
2018-03-11T05:43:14.634Z,94.65
2018-03-11T05:43:55.173Z,94.37
2018-03-11T05:44:35.707Z,94.27
2018-03-11T05:45:16.268Z,94.46
2018-03-11T05:45:56.828Z,94.74
2018-03-11T05:46:37.377Z,94.27
2018-03-11T05:47:17.907Z,94.46
2018-03-11T05:47:58.463Z,94.74
2018-03-11T05:48:39.018Z,94.93
2018-03-11T05:49:19.565Z,94.46
2018-03-11T05:50:00.109Z,94.65
2018-03-11T05:50:40.707Z,94.65
2018-03-11T05:51:21.252Z,94.56
2018-03-11T05:52:01.807Z,94.37
2018-03-11T05:52:42.349Z,94.56
2018-03-11T05:53:22.948Z,94.93
2018-03-11T05:54:03.477Z,94.27
2018-03-11T05:54:44.042Z,94.74
2018-03-11T05:55:24.604Z,94.93
2018-03-11T05:56:05.158Z,94.27
2018-03-11T05:56:45.720Z,94.37
2018-03-11T05:57:26.275Z,94.74
2018-03-11T05:58:06.851Z,94.56
2018-03-11T05:58:47.389Z,94.56
2018-03-11T05:59:27.938Z,94.46
2018-03-11T06:00:08.505Z,95.03
2018-03-11T06:00:49.055Z,94.56
2018-03-11T06:01:29.625Z,94.46
2018-03-11T06:02:10.173Z,94.37
2018-03-11T06:02:50.725Z,95.6
2018-03-11T06:03:31.288Z,95.12
2018-03-11T06:04:11.842Z,94.93
2018-03-11T06:04:52.421Z,94.84
2018-03-11T06:05:32.965Z,95.12
2018-03-11T06:06:13.528Z,94.93
2018-03-11T06:06:54.081Z,94.84
2018-03-11T06:07:34.635Z,94.84
2018-03-11T06:08:15.186Z,94.56
2018-03-11T06:08:55.732Z,95.12
2018-03-11T06:09:36.300Z,95.12
2018-03-11T06:10:16.862Z,94.84
2018-03-11T06:10:57.413Z,95.12
2018-03-11T06:11:38.003Z,95.32
2018-03-11T06:12:18.572Z,95.32
2018-03-11T06:12:59.235Z,94.93
2018-03-11T06:13:39.807Z,94.65
2018-03-11T06:14:20.332Z,95.12
2018-03-11T06:15:00.876Z,94.93
2018-03-11T06:15:41.427Z,94.56
2018-03-11T06:16:21.999Z,94.65
2018-03-11T06:17:02.519Z,94.37
2018-03-11T06:17:43.058Z,94.27
2018-03-11T06:18:23.600Z,94.93
2018-03-11T06:19:04.169Z,94.65
2018-03-11T06:19:44.723Z,94.84
2018-03-11T06:20:25.299Z,94.37
2018-03-11T06:21:05.874Z,94.93
2018-03-11T06:21:46.435Z,94.65
2018-03-11T06:22:26.970Z,94.74
2018-03-11T06:23:07.515Z,94.93
2018-03-11T06:23:48.050Z,94.84
2018-03-11T06:24:28.614Z,95.03
2018-03-11T06:25:09.175Z,95.03
2018-03-11T06:25:49.726Z,95.12
2018-03-11T06:26:30.283Z,95.03
2018-03-11T06:27:10.823Z,95.32
2018-03-11T06:27:51.385Z,95.32
2018-03-11T06:28:31.930Z,94.93
2018-03-11T06:29:12.500Z,95.12
2018-03-11T06:29:53.034Z,95.32
2018-03-11T06:30:33.598Z,95.32
2018-03-11T06:31:14.155Z,94.84
2018-03-11T06:31:54.700Z,95.03
2018-03-11T06:32:35.264Z,94.93
2018-03-11T06:33:15.814Z,94.84
2018-03-11T06:33:56.357Z,95.22
2018-03-11T06:34:36.915Z,94.74
2018-03-11T06:35:17.473Z,95.22
2018-03-11T06:35:58.053Z,95.32
2018-03-11T06:36:38.585Z,95.41
2018-03-11T06:37:19.137Z,94.37
2018-03-11T06:37:59.686Z,94.37
2018-03-11T06:38:40.239Z,95.6
2018-03-11T06:39:20.778Z,94.84
2018-03-11T06:40:01.335Z,94.93
2018-03-11T06:40:41.934Z,94.84
2018-03-11T06:41:22.479Z,94.56
2018-03-11T06:42:03.044Z,94.65
2018-03-11T06:42:43.609Z,95.32
2018-03-11T06:43:24.288Z,95.32
2018-03-11T06:44:04.851Z,95.32
2018-03-11T06:44:45.424Z,95.41
2018-03-11T06:45:25.959Z,95.32
2018-03-11T06:46:06.531Z,95.22
2018-03-11T06:46:47.080Z,95.03
2018-03-11T06:47:27.656Z,95.32
2018-03-11T06:48:08.256Z,94.93
2018-03-11T06:48:48.808Z,95.22
2018-03-11T06:49:29.359Z,95.98
2018-03-11T06:50:09.908Z,95.89
2018-03-11T06:50:50.467Z,95.51
2018-03-11T06:51:31.038Z,95.6
2018-03-11T06:52:11.656Z,95.41
2018-03-11T06:52:52.178Z,95.51
2018-03-11T06:53:32.721Z,95.6
2018-03-11T06:54:13.294Z,95.32
2018-03-11T06:54:53.866Z,95.51
2018-03-11T06:55:34.404Z,95.41
2018-03-11T06:56:14.966Z,95.32
2018-03-11T06:56:55.523Z,95.51
2018-03-11T06:57:36.085Z,95.6
2018-03-11T06:58:16.646Z,95.7
2018-03-11T06:58:57.200Z,95.6
2018-03-11T06:59:37.780Z,95.6
2018-03-11T07:00:18.338Z,95.6
2018-03-11T07:00:58.899Z,95.7
2018-03-11T07:01:39.451Z,95.51
2018-03-11T07:02:20.006Z,95.51
2018-03-11T07:03:00.563Z,95.89
2018-03-11T07:03:41.147Z,94.93
2018-03-11T07:04:21.717Z,94.74
2018-03-11T07:05:02.287Z,94.93
2018-03-11T07:05:42.829Z,95.12
2018-03-11T07:06:23.392Z,95.22
2018-03-11T07:07:03.956Z,94.98
2018-03-11T07:07:44.509Z,94.84
2018-03-11T07:08:25.049Z,94.98
2018-03-11T07:09:05.606Z,94.98
2018-03-11T07:09:46.163Z,95.36
2018-03-11T07:10:26.709Z,95.17
2018-03-11T07:11:07.269Z,94.98
2018-03-11T07:11:47.817Z,95.08
2018-03-11T07:12:28.369Z,95.46
2018-03-11T07:13:08.898Z,94.7
2018-03-11T07:13:49.471Z,94.98
2018-03-11T07:14:30.022Z,94.51
2018-03-11T07:15:10.571Z,94.42
2018-03-11T07:15:51.142Z,94.42
2018-03-11T07:16:31.718Z,95.27
2018-03-11T07:17:12.283Z,95.17
2018-03-11T07:17:52.834Z,95.17
2018-03-11T07:18:33.968Z,95.17
2018-03-11T07:19:14.509Z,95.17
2018-03-11T07:19:55.046Z,95.17
2018-03-11T07:20:35.594Z,95.08
2018-03-11T07:21:16.146Z,94.98
2018-03-11T07:21:56.684Z,95.08
2018-03-11T07:22:37.230Z,95.17
2018-03-11T07:23:17.825Z,95.27
2018-03-11T07:23:58.349Z,95.36
2018-03-11T07:24:38.876Z,95.46
2018-03-11T07:25:19.439Z,94.79
2018-03-11T07:25:59.987Z,95.46
2018-03-11T07:26:40.557Z,95.36
2018-03-11T07:27:21.110Z,95.36
2018-03-11T07:28:01.660Z,94.98
2018-03-11T07:28:42.215Z,95.08
2018-03-11T07:29:22.752Z,95.75
2018-03-11T07:30:03.390Z,95.46
2018-03-11T07:30:43.948Z,95.56
2018-03-11T07:31:24.505Z,95.27
2018-03-11T07:32:05.048Z,94.98
2018-03-11T07:32:45.605Z,94.79
2018-03-11T07:33:26.176Z,94.65
2018-03-11T07:34:06.727Z,94.84
2018-03-11T07:34:47.272Z,94.56
2018-03-11T07:35:27.836Z,94.27
2018-03-11T07:36:08.386Z,94.27
2018-03-11T07:36:48.935Z,93.18
2018-03-11T07:37:29.493Z,92.79
2018-03-11T07:38:10.064Z,91.46
2018-03-11T07:38:50.621Z,90.75
2018-03-11T07:39:31.189Z,90.36
2018-03-11T07:40:11.753Z,89.07
2018-03-11T07:40:52.304Z,87.07
2018-03-11T07:41:32.914Z,85.02
2018-03-11T07:42:13.488Z,83.97
2018-03-11T07:42:54.059Z,83.5
2018-03-11T07:43:34.607Z,82.73
2018-03-11T07:44:15.162Z,82.3
2018-03-11T07:44:55.716Z,82.01
2018-03-11T07:45:36.279Z,82.01
2018-03-11T07:46:16.825Z,81.92
2018-03-11T07:46:57.389Z,80.53
2018-03-11T07:47:37.952Z,79.28
2018-03-11T07:48:18.506Z,78.94
2018-03-11T07:48:59.084Z,77.42
2018-03-11T07:49:39.642Z,76.56
2018-03-11T07:50:20.224Z,76.56
2018-03-11T07:51:00.800Z,75.98
2018-03-11T07:51:41.356Z,76.31
2018-03-11T07:52:21.930Z,75.83
2018-03-11T07:53:02.495Z,74.98
2018-03-11T07:53:43.069Z,74.02
2018-03-11T07:54:23.639Z,73.92
2018-03-11T07:55:04.201Z,72.97
2018-03-11T07:55:44.750Z,73.25
2018-03-11T07:56:25.324Z,73
2018-03-11T07:57:05.872Z,73.1
2018-03-11T07:57:46.427Z,72.81
2018-03-11T07:58:26.986Z,72.62
2018-03-11T07:59:07.543Z,72.62
2018-03-11T07:59:48.081Z,72.53
2018-03-11T08:00:28.639Z,71.51
2018-03-11T08:01:09.229Z,71.42
2018-03-11T08:01:49.811Z,70.84
2018-03-11T08:02:30.366Z,69.7
2018-03-11T08:03:10.929Z,69.89
2018-03-11T08:03:51.497Z,68.84
2018-03-11T08:04:32.079Z,68.64
2018-03-11T08:05:12.651Z,68.74
2018-03-11T08:05:53.255Z,68.26
2018-03-11T08:06:33.809Z,68.74
2018-03-11T08:07:14.381Z,69.21
2018-03-11T08:07:54.965Z,69.12
2018-03-11T08:08:35.533Z,68.93
2018-03-11T08:09:16.116Z,69.21
2018-03-11T08:09:56.696Z,69.02
2018-03-11T08:10:37.258Z,69.12
2018-03-11T08:11:17.872Z,69.54
2018-03-11T08:11:58.445Z,69.15
2018-03-11T08:12:39.012Z,68.49
2018-03-11T08:13:19.586Z,68.04
2018-03-11T08:14:00.163Z,67.37
2018-03-11T08:14:40.720Z,66.89
2018-03-11T08:15:21.282Z,66.41
2018-03-11T08:16:01.851Z,65.88
2018-03-11T08:16:42.476Z,65.49
2018-03-11T08:17:22.998Z,65.39
2018-03-11T08:18:03.558Z,64.53
2018-03-11T08:18:44.119Z,64.92
2018-03-11T08:19:24.705Z,64.92
2018-03-11T08:20:05.287Z,64.56
2018-03-11T08:20:45.856Z,64.09
2018-03-11T08:21:26.448Z,63.89
2018-03-11T08:22:07.021Z,64.47
2018-03-11T08:22:47.559Z,63.22
2018-03-11T08:23:28.188Z,63.22
2018-03-11T08:24:08.759Z,63.35
2018-03-11T08:24:49.323Z,62.49
2018-03-11T08:25:29.895Z,62.49
2018-03-11T08:26:10.462Z,62.87
2018-03-11T08:26:51.024Z,62.77
2018-03-11T08:27:31.591Z,61.75
2018-03-11T08:28:12.174Z,61.18
2018-03-11T08:28:52.727Z,61.15
2018-03-11T08:29:33.334Z,61.56
2018-03-11T08:30:13.888Z,61.37
2018-03-11T08:30:54.487Z,61.37
2018-03-11T08:31:35.064Z,61.37
2018-03-11T08:32:15.626Z,61.37
2018-03-11T08:32:56.212Z,60.7
2018-03-11T08:33:36.778Z,61.18
2018-03-11T08:34:17.353Z,61.37
2018-03-11T08:36:30.370Z,62.04
2018-03-11T08:37:10.930Z,61.75
2018-03-11T08:37:51.486Z,61.91
2018-03-11T08:38:32.032Z,61.63
2018-03-11T08:39:12.584Z,61.37
2018-03-11T08:39:53.156Z,62.1
2018-03-11T08:40:33.752Z,62.2
2018-03-11T08:41:14.350Z,62.01
2018-03-11T08:41:54.923Z,62.59
2018-03-11T08:42:35.462Z,62.84
2018-03-11T08:43:16.021Z,63.32
2018-03-11T08:43:56.577Z,64.09
2018-03-11T08:44:37.124Z,64.28
2018-03-11T08:45:17.691Z,64.28
2018-03-11T08:45:58.317Z,64.37
2018-03-11T08:46:38.866Z,64.76
2018-03-11T08:47:19.463Z,65.05
2018-03-11T08:48:00.028Z,65.49
2018-03-11T08:48:40.588Z,65.39